Time;durP1;ratioP1;P1;durP2;ratioP2;P2;SDS_P1;SDS_P2;PMS_P1;PMS_P2;Temp;Humidity;BMP_temperature;BMP_pressure;BME280_temperature;BME280_humidity;BME280_pressure;Samples;Min_cycle;Max_cycle;Signal;HPM_P1;HPM_P2
2022/06/26 00:01:56;;;;;;;1.75;1.30;;;11.70;99.90;;;;;;4955033;28;20114;-81
2022/06/26 00:04:21;;;;;;;3.60;1.40;;;11.70;99.90;;;;;;4955125;28;20024;-80
2022/06/26 00:06:47;;;;;;;5.45;1.30;;;11.60;99.90;;;;;;4954763;28;20015;-81
2022/06/26 00:09:13;;;;;;;2.42;1.30;;;11.60;99.90;;;;;;4954764;28;20384;-81
2022/06/26 00:11:39;;;;;;;3.97;1.55;;;11.70;99.90;;;;;;4953588;28;20472;-81
2022/06/26 00:14:05;;;;;;;1.63;1.40;;;11.60;99.90;;;;;;4954801;28;20145;-82
2022/06/26 00:16:30;;;;;;;5.00;1.52;;;11.50;99.90;;;;;;4954594;28;20027;-81
2022/06/26 00:18:56;;;;;;;3.33;1.20;;;11.50;99.90;;;;;;4954618;28;20082;-82
2022/06/26 00:21:22;;;;;;;1.27;1.17;;;11.40;99.90;;;;;;4953414;28;20031;-82
2022/06/26 00:23:48;;;;;;;3.50;1.30;;;11.40;99.90;;;;;;4954901;28;20086;-82
2022/06/26 00:26:14;;;;;;;3.08;1.20;;;11.30;99.90;;;;;;4955384;28;20027;-81
2022/06/26 00:28:40;;;;;;;3.72;1.70;;;11.30;99.90;;;;;;4954784;28;20019;-81
2022/06/26 00:31:05;;;;;;;2.60;2.38;;;11.30;99.90;;;;;;4954809;28;20046;-81
2022/06/26 00:33:31;;;;;;;3.85;1.90;;;11.30;99.90;;;;;;4954740;28;20029;-81
2022/06/26 00:35:57;;;;;;;5.00;2.35;;;11.20;99.90;;;;;;4954585;28;20023;-81
2022/06/26 00:38:22;;;;;;;2.75;1.77;;;11.20;99.90;;;;;;4954658;28;20085;-81
2022/06/26 00:40:48;;;;;;;1.95;1.55;;;11.10;99.90;;;;;;4953195;28;20043;-81
2022/06/26 00:43:14;;;;;;;2.92;1.40;;;11.10;99.90;;;;;;4954413;28;20093;-81
2022/06/26 00:45:40;;;;;;;1.65;1.45;;;11.10;99.90;;;;;;4954343;28;20024;-81
2022/06/26 00:48:05;;;;;;;2.55;1.60;;;11.10;99.90;;;;;;4954126;28;20516;-80
2022/06/26 00:50:32;;;;;;;1.90;1.55;;;11.10;99.90;;;;;;4954133;28;20122;-80
2022/06/26 00:52:58;;;;;;;3.97;2.70;;;11.00;99.90;;;;;;4953984;28;20027;-80
2022/06/26 00:55:24;;;;;;;7.68;4.13;;;11.00;99.90;;;;;;5007747;23;20042;-76
2022/06/26 00:57:50;;;;;;;4.45;2.97;;;10.90;99.90;;;;;;4993880;28;20080;-77
2022/06/26 01:00:16;;;;;;;5.68;4.60;;;10.90;99.90;;;;;;5011811;28;20490;-76
2022/06/26 01:02:42;;;;;;;8.25;3.60;;;11.00;99.90;;;;;;5011635;28;20116;-77
2022/06/26 01:05:09;;;;;;;5.70;3.78;;;10.90;99.90;;;;;;5011461;28;20133;-76
2022/06/26 01:07:35;;;;;;;4.18;3.00;;;10.90;99.90;;;;;;5011487;28;20030;-77
2022/06/26 01:10:03;;;;;;;4.70;2.97;;;10.80;99.90;;;;;;5011398;28;20467;-77
2022/06/26 01:12:29;;;;;;;5.93;3.25;;;10.70;99.90;;;;;;5011514;28;20029;-76
2022/06/26 01:14:56;;;;;;;11.70;3.58;;;10.70;99.90;;;;;;5011311;28;20498;-76
2022/06/26 01:17:22;;;;;;;4.50;2.60;;;10.70;99.90;;;;;;5011297;28;20033;-76
2022/06/26 01:19:48;;;;;;;4.53;2.88;;;10.60;99.90;;;;;;4993759;28;20026;-76
2022/06/26 01:22:13;;;;;;;6.13;2.63;;;10.60;99.90;;;;;;5011340;28;20105;-76
2022/06/26 01:24:39;;;;;;;4.38;2.10;;;10.50;99.90;;;;;;5011116;28;20022;-76
2022/06/26 01:27:05;;;;;;;4.22;2.08;;;10.50;99.90;;;;;;5011118;28;20084;-76
2022/06/26 01:29:31;;;;;;;2.50;2.17;;;10.40;99.90;;;;;;5010984;28;20018;-77
2022/06/26 01:31:57;;;;;;;2.83;2.00;;;10.40;99.90;;;;;;5010470;28;20055;-77
2022/06/26 01:34:23;;;;;;;2.38;2.17;;;10.30;99.90;;;;;;5010827;28;20026;-77
2022/06/26 01:36:49;;;;;;;2.63;1.92;;;10.30;99.90;;;;;;5010869;28;20149;-76
2022/06/26 01:39:19;;;;;;;4.03;1.58;;;10.40;99.90;;;;;;5010943;28;20104;-76
2022/06/26 01:41:44;;;;;;;3.22;2.00;;;10.30;99.90;;;;;;5010766;28;20034;-76
2022/06/26 01:44:10;;;;;;;5.22;2.33;;;10.40;99.90;;;;;;5010733;28;20109;-76
2022/06/26 01:46:36;;;;;;;3.10;2.08;;;10.40;99.90;;;;;;5010894;28;20087;-76
2022/06/26 01:49:02;;;;;;;2.22;1.75;;;10.30;99.90;;;;;;5010799;28;20022;-76
2022/06/26 01:51:28;;;;;;;1.17;1.10;;;10.20;99.90;;;;;;5010484;28;20034;-76
2022/06/26 01:53:53;;;;;;;1.88;1.67;;;10.10;99.90;;;;;;5028893;23;20022;-80
2022/06/26 01:56:19;;;;;;;1.27;0.93;;;10.10;99.90;;;;;;5009508;28;20034;-80
2022/06/26 01:58:45;;;;;;;3.50;1.95;;;10.10;99.90;;;;;;5010745;28;20030;-81
2022/06/26 02:01:11;;;;;;;1.55;0.98;;;10.00;99.90;;;;;;5009532;28;20046;-80
2022/06/26 02:03:37;;;;;;;2.85;1.25;;;10.00;99.90;;;;;;5009492;28;20025;-81
2022/06/26 02:06:02;;;;;;;2.65;2.22;;;10.00;99.90;;;;;;5010812;28;20378;-80
2022/06/26 02:08:28;;;;;;;1.25;1.02;;;10.00;99.90;;;;;;5009420;28;20080;-81
2022/06/26 02:13:42;;;;;;;2.47;1.67;;;10.00;99.90;;;;;;5004005;28;20501;-81
2022/06/26 02:16:07;;;;;;;3.40;1.70;;;10.00;99.90;;;;;;5010779;28;20045;-81
2022/06/26 02:18:34;;;;;;;0.93;0.93;;;10.00;99.90;;;;;;5010650;28;20011;-81
2022/06/26 02:21:00;;;;;;;1.98;1.10;;;10.00;99.90;;;;;;5011013;28;20029;-80
2022/06/26 02:23:26;;;;;;;2.20;1.15;;;9.90;99.90;;;;;;5010497;28;20062;-80
2022/06/26 02:25:53;;;;;;;2.00;1.20;;;9.90;99.90;;;;;;5009135;28;20114;-80
2022/06/26 02:28:18;;;;;;;2.05;1.70;;;9.90;99.90;;;;;;5010726;28;20045;-81
2022/06/26 02:30:46;;;;;;;2.20;1.30;;;9.90;99.90;;;;;;5008541;28;20018;-81
2022/06/26 02:33:12;;;;;;;3.25;1.10;;;9.90;99.90;;;;;;5010590;28;20114;-80
2022/06/26 02:35:37;;;;;;;1.73;0.98;;;9.90;99.90;;;;;;5010825;28;20097;-80
2022/06/26 02:38:03;;;;;;;1.92;1.02;;;10.00;99.90;;;;;;5010626;28;20026;-80
2022/06/26 02:40:30;;;;;;;2.47;1.20;;;10.00;99.90;;;;;;5009095;28;20022;-80
2022/06/26 02:42:57;;;;;;;1.35;0.93;;;10.10;99.90;;;;;;5011256;28;20038;-80
2022/06/26 02:45:23;;;;;;;1.52;1.00;;;10.10;99.90;;;;;;5014241;28;20010;-78
2022/06/26 02:47:49;;;;;;;5.07;1.20;;;10.10;99.90;;;;;;5014381;28;20144;-78
2022/06/26 02:50:16;;;;;;;3.63;1.30;;;10.10;99.90;;;;;;5012774;28;20105;-78
2022/06/26 02:52:43;;;;;;;2.85;1.00;;;10.10;99.90;;;;;;5014148;28;20092;-78
2022/06/26 02:55:09;;;;;;;1.02;0.90;;;10.20;99.90;;;;;;5013789;28;20026;-78
2022/06/26 02:57:35;;;;;;;5.07;1.70;;;10.20;99.90;;;;;;5012502;28;20387;-78
2022/06/26 03:00:01;;;;;;;6.57;1.17;;;10.20;99.90;;;;;;5014041;28;20025;-78
2022/06/26 03:02:27;;;;;;;3.58;1.30;;;10.30;99.90;;;;;;5013944;28;20045;-77
2022/06/26 03:04:53;;;;;;;2.42;0.85;;;10.30;99.90;;;;;;5012538;28;20030;-78
2022/06/26 03:07:20;;;;;;;3.17;1.23;;;10.30;99.90;;;;;;5016272;28;20026;-78
2022/06/26 03:09:46;;;;;;;0.90;0.77;;;10.30;99.90;;;;;;5012208;28;20045;-78
2022/06/26 03:12:12;;;;;;;1.60;1.00;;;10.30;99.90;;;;;;5013425;28;20034;-78
2022/06/26 03:14:38;;;;;;;1.67;1.02;;;10.30;99.90;;;;;;5014056;28;20470;-78
2022/06/26 03:17:04;;;;;;;2.60;1.10;;;10.30;99.90;;;;;;5013569;28;20033;-78
2022/06/26 03:19:30;;;;;;;1.40;0.90;;;10.20;99.90;;;;;;5013258;28;20022;-78
2022/06/26 03:21:56;;;;;;;1.50;0.90;;;10.20;99.90;;;;;;5013586;28;20037;-78
2022/06/26 03:24:22;;;;;;;4.20;0.77;;;10.30;99.90;;;;;;5013040;28;20078;-78
2022/06/26 03:26:48;;;;;;;3.30;0.90;;;10.20;99.90;;;;;;5013167;28;20375;-78
2022/06/26 03:29:14;;;;;;;3.00;0.95;;;10.20;99.90;;;;;;5013380;28;20029;-78
2022/06/26 03:31:40;;;;;;;1.90;0.90;;;10.20;99.90;;;;;;5012224;28;20598;-77
2022/06/26 03:34:06;;;;;;;3.85;1.10;;;10.20;99.90;;;;;;5013445;28;20030;-78
2022/06/26 03:36:33;;;;;;;1.42;0.85;;;10.20;99.90;;;;;;5013384;28;20105;-78
2022/06/26 03:38:59;;;;;;;0.93;0.80;;;10.10;99.90;;;;;;5013426;28;20026;-78
2022/06/26 03:41:26;;;;;;;1.52;1.10;;;10.20;99.90;;;;;;5013055;28;20033;-78
2022/06/26 03:43:53;;;;;;;11.35;1.42;;;10.10;99.90;;;;;;5012208;28;20109;-78
2022/06/26 03:46:19;;;;;;;1.73;1.00;;;10.10;99.90;;;;;;5006370;28;20022;-78
2022/06/26 03:48:45;;;;;;;1.30;1.02;;;10.10;99.90;;;;;;5013040;28;20029;-78
2022/06/26 03:51:11;;;;;;;0.80;0.70;;;10.10;99.90;;;;;;5011333;28;20068;-78
2022/06/26 03:53:37;;;;;;;4.07;1.30;;;10.10;99.90;;;;;;5012935;28;20018;-79
2022/06/26 03:56:03;;;;;;;1.20;0.95;;;10.00;99.90;;;;;;5012377;28;20505;-78
2022/06/26 03:58:30;;;;;;;2.72;0.60;;;10.00;99.90;;;;;;5012681;28;20034;-78
2022/06/26 04:00:55;;;;;;;4.03;1.25;;;10.00;99.90;;;;;;5012967;28;20033;-78
2022/06/26 04:03:21;;;;;;;3.22;1.25;;;10.00;99.90;;;;;;5012721;28;20109;-78
2022/06/26 04:05:47;;;;;;;1.50;1.20;;;10.00;99.90;;;;;;5011416;28;20076;-78
2022/06/26 04:08:14;;;;;;;6.05;1.27;;;10.00;99.90;;;;;;5012791;28;20049;-78
2022/06/26 04:10:40;;;;;;;2.17;1.17;;;10.10;99.90;;;;;;5010984;28;20022;-78
2022/06/26 04:13:08;;;;;;;1.30;1.20;;;10.20;99.90;;;;;;5011219;28;20109;-78
2022/06/26 04:15:36;;;;;;;3.45;1.33;;;10.30;99.90;;;;;;5012172;28;20423;-77
2022/06/26 04:18:03;;;;;;;1.45;1.10;;;10.50;99.90;;;;;;5012382;28;20052;-78
2022/06/26 04:20:29;;;;;;;2.63;1.13;;;10.90;99.90;;;;;;5012271;28;20486;-78
2022/06/26 04:23:00;;;;;;;2.10;0.90;;;11.20;99.90;;;;;;5012385;28;20073;-78
2022/06/26 04:25:28;;;;;;;2.60;1.02;;;11.50;99.90;;;;;;5005759;28;20021;-78
2022/06/26 04:27:54;;;;;;;5.25;1.48;;;11.80;99.90;;;;;;5012040;28;20026;-78
2022/06/26 04:30:20;;;;;;;8.85;1.98;;;12.30;99.90;;;;;;5012232;28;20036;-78
2022/06/26 04:32:46;;;;;;;4.07;1.45;;;12.50;99.90;;;;;;5012396;28;20109;-80
2022/06/26 04:35:12;;;;;;;4.07;1.40;;;12.80;99.90;;;;;;5012313;28;20460;-78
2022/06/26 04:37:38;;;;;;;4.70;1.30;;;12.90;99.90;;;;;;5011940;28;20018;-78
2022/06/26 04:40:05;;;;;;;6.30;1.10;;;13.10;99.90;;;;;;5011170;28;20021;-79
2022/06/26 04:42:31;;;;;;;3.80;1.20;;;13.00;99.90;;;;;;5012066;28;20054;-77
2022/06/26 04:44:57;;;;;;;0.40;0.40;;;12.80;99.90;;;;;;5012036;28;20049;-78
2022/06/26 04:47:23;;;;;;;1.50;0.85;;;12.60;99.90;;;;;;5012157;28;20104;-77
2022/06/26 04:49:48;;;;;;;4.18;0.50;;;12.50;99.90;;;;;;5011964;28;20068;-77
2022/06/26 04:52:15;;;;;;;1.17;0.80;;;12.30;99.90;;;;;;5010415;28;20030;-77
2022/06/26 04:54:44;;;;;;;3.25;0.50;;;12.20;99.90;;;;;;5012538;28;20057;-77
2022/06/26 04:57:10;;;;;;;3.38;1.60;;;12.20;99.90;;;;;;5004956;28;20021;-80
2022/06/26 04:59:36;;;;;;;4.20;0.80;;;12.10;99.90;;;;;;5011634;28;20021;-77
2022/06/26 05:02:03;;;;;;;2.03;0.70;;;12.10;99.90;;;;;;5011341;28;20037;-78
2022/06/26 05:04:29;;;;;;;4.15;0.63;;;12.10;99.90;;;;;;5012032;28;20021;-77
2022/06/26 05:06:55;;;;;;;1.75;0.50;;;12.10;99.90;;;;;;5010430;28;20018;-77
2022/06/26 05:09:22;;;;;;;3.85;1.05;;;12.00;99.90;;;;;;5011299;28;20426;-77
2022/06/26 05:11:48;;;;;;;4.55;1.20;;;12.00;99.90;;;;;;5010145;28;20376;-77
2022/06/26 05:14:15;;;;;;;2.63;1.52;;;12.10;99.90;;;;;;5010273;28;20033;-78
2022/06/26 05:16:41;;;;;;;4.15;0.70;;;12.10;99.90;;;;;;5011134;28;20435;-77
2022/06/26 05:19:07;;;;;;;2.83;0.77;;;12.20;99.90;;;;;;5011276;28;20181;-78
2022/06/26 05:21:33;;;;;;;1.73;0.93;;;12.30;99.90;;;;;;5011098;28;20117;-78
2022/06/26 05:23:59;;;;;;;2.17;0.80;;;12.40;99.90;;;;;;5011474;28;20149;-78
2022/06/26 05:26:25;;;;;;;2.05;1.08;;;12.50;99.90;;;;;;5011025;28;20104;-78
2022/06/26 05:28:52;;;;;;;1.30;0.80;;;12.60;99.90;;;;;;5011447;28;20022;-77
2022/06/26 05:31:17;;;;;;;2.50;0.77;;;12.80;99.90;;;;;;5010537;28;20093;-78
2022/06/26 05:33:43;;;;;;;1.05;0.50;;;12.90;99.90;;;;;;5009870;28;20112;-78
2022/06/26 05:36:09;;;;;;;2.60;0.68;;;13.00;99.90;;;;;;5011128;28;20014;-78
2022/06/26 05:38:36;;;;;;;0.95;0.50;;;13.10;99.90;;;;;;5011192;28;20375;-78
2022/06/26 05:41:02;;;;;;;3.80;1.05;;;13.10;99.90;;;;;;5010837;28;20045;-78
2022/06/26 05:43:28;;;;;;;2.75;0.77;;;13.30;99.90;;;;;;5009659;28;20052;-78
2022/06/26 05:45:54;;;;;;;3.38;0.80;;;13.40;99.90;;;;;;5011168;28;20109;-78
2022/06/26 05:48:19;;;;;;;2.55;0.80;;;13.50;99.90;;;;;;5011147;28;20490;-79
2022/06/26 05:50:45;;;;;;;1.70;0.85;;;13.70;99.90;;;;;;5003016;28;20378;-78
2022/06/26 05:53:11;;;;;;;1.58;0.60;;;13.90;99.90;;;;;;5010646;28;20022;-78
2022/06/26 05:55:38;;;;;;;5.20;1.17;;;14.00;99.90;;;;;;5010863;28;20549;-78
2022/06/26 05:58:05;;;;;;;4.00;0.55;;;14.30;99.90;;;;;;5011087;28;20509;-79
2022/06/26 06:00:32;;;;;;;3.85;0.82;;;14.50;99.90;;;;;;5010845;28;20026;-79
2022/06/26 06:02:58;;;;;;;5.55;0.80;;;14.60;99.90;;;;;;5009886;28;20359;-79
2022/06/26 06:05:25;;;;;;;1.67;0.32;;;14.60;99.90;;;;;;5010688;28;20080;-80
2022/06/26 06:07:52;;;;;;;1.35;0.40;;;14.60;99.90;;;;;;5009246;28;20028;-79
2022/06/26 06:10:20;;;;;;;4.00;0.70;;;14.70;99.90;;;;;;5010402;28;20037;-79
2022/06/26 06:12:47;;;;;;;4.28;0.88;;;14.70;99.90;;;;;;5010722;28;20021;-78
2022/06/26 06:15:13;;;;;;;2.30;0.60;;;14.80;99.90;;;;;;5010887;28;20022;-79
2022/06/26 06:17:41;;;;;;;2.45;0.50;;;14.80;99.90;;;;;;5010782;28;20460;-79
2022/06/26 06:20:19;;;;;;;3.00;0.35;;;14.90;99.90;;;;;;5014902;28;20026;-78
2022/06/26 06:23:02;;;;;;;3.30;0.50;;;15.00;99.90;;;;;;5014353;28;20026;-79
2022/06/26 06:25:28;;;;;;;3.20;0.68;;;15.20;99.90;;;;;;5014476;28;20049;-79
2022/06/26 06:27:54;;;;;;;4.07;0.50;;;15.60;99.90;;;;;;5014123;28;20057;-79
2022/06/26 06:30:19;;;;;;;0.80;0.43;;;15.70;99.90;;;;;;5014500;28;20542;-79
2022/06/26 06:32:48;;;;;;;7.15;0.55;;;16.00;99.90;;;;;;5014820;28;20100;-79
2022/06/26 06:35:14;;;;;;;2.67;0.50;;;16.30;99.90;;;;;;5014516;28;20025;-78
2022/06/26 06:37:41;;;;;;;5.20;0.85;;;16.40;99.90;;;;;;5014257;28;20499;-80
2022/06/26 06:40:09;;;;;;;5.68;0.68;;;16.30;99.90;;;;;;5014313;28;20433;-79
2022/06/26 06:42:35;;;;;;;3.60;0.50;;;16.30;99.90;;;;;;5007333;28;20382;-78
2022/06/26 06:45:01;;;;;;;4.10;0.68;;;16.40;99.90;;;;;;5013104;28;20021;-80
2022/06/26 06:47:27;;;;;;;3.63;0.75;;;16.30;99.90;;;;;;5014079;28;20022;-77
2022/06/26 06:49:52;;;;;;;5.38;0.60;;;16.30;99.90;;;;;;5014640;28;20025;-79
2022/06/26 06:52:18;;;;;;;6.32;0.98;;;16.40;99.90;;;;;;5013978;28;20442;-79
2022/06/26 06:54:44;;;;;;;6.90;1.50;;;16.70;99.90;;;;;;5014337;28;20022;-77
2022/06/26 06:57:10;;;;;;;4.20;0.90;;;16.80;99.90;;;;;;5013739;28;20551;-78
2022/06/26 06:59:35;;;;;;;2.65;0.55;;;16.80;99.90;;;;;;5014079;28;20017;-78
2022/06/26 07:02:01;;;;;;;2.10;0.30;;;16.60;99.90;;;;;;5013780;28;20072;-77
2022/06/26 07:04:27;;;;;;;3.92;0.95;;;16.50;99.90;;;;;;5013872;28;20360;-76
2022/06/26 07:06:54;;;;;;;3.97;0.40;;;16.40;99.90;;;;;;5013572;28;20026;-77
2022/06/26 07:09:19;;;;;;;2.20;0.55;;;16.30;99.90;;;;;;5013560;28;20029;-77
2022/06/26 07:11:45;;;;;;;7.05;0.60;;;16.20;99.90;;;;;;5013508;28;20109;-78
2022/06/26 07:14:11;;;;;;;3.25;0.55;;;16.20;99.90;;;;;;5011856;28;20080;-76
2022/06/26 07:16:37;;;;;;;7.70;0.95;;;16.10;99.90;;;;;;5013804;28;20037;-78
2022/06/26 07:19:04;;;;;;;3.35;0.60;;;16.10;99.90;;;;;;5012387;28;20022;-77
2022/06/26 07:21:29;;;;;;;3.38;0.95;;;16.20;99.90;;;;;;5012282;28;20032;-78
2022/06/26 07:23:55;;;;;;;2.83;0.40;;;16.30;99.90;;;;;;5013347;28;20030;-77
2022/06/26 07:26:21;;;;;;;1.42;0.43;;;16.30;99.90;;;;;;5013285;28;20026;-77
2022/06/26 07:28:47;;;;;;;4.07;0.40;;;16.30;99.90;;;;;;5012009;28;20064;-77
2022/06/26 07:31:13;;;;;;;2.63;0.80;;;16.20;99.90;;;;;;5012077;28;20391;-76
2022/06/26 07:36:23;;;;;;;3.63;0.50;;;16.30;99.90;;;;;;5008241;28;20017;-77
2022/06/26 07:38:48;;;;;;;1.45;0.60;;;16.30;99.90;;;;;;5011781;28;20022;-77
2022/06/26 07:41:14;;;;;;;6.22;0.77;;;16.50;99.90;;;;;;5012754;28;20030;-77
2022/06/26 07:43:40;;;;;;;0.38;0.38;;;16.70;99.90;;;;;;5013496;28;20037;-77
2022/06/26 07:46:06;;;;;;;3.70;0.68;;;16.80;99.90;;;;;;5012748;28;20104;-78
2022/06/26 07:48:33;;;;;;;4.85;0.90;;;16.70;99.90;;;;;;5012620;28;20386;-79
2022/06/26 07:50:59;;;;;;;1.88;0.40;;;16.70;99.90;;;;;;5012593;28;20022;-78
2022/06/26 07:53:25;;;;;;;7.40;1.17;;;16.70;99.90;;;;;;5012939;28;20021;-77
2022/06/26 07:55:50;;;;;;;1.27;0.40;;;16.60;99.90;;;;;;5013353;28;20096;-76
2022/06/26 07:58:16;;;;;;;2.63;0.70;;;16.60;99.90;;;;;;5011497;28;20189;-79
2022/06/26 08:00:42;;;;;;;1.98;0.60;;;16.60;99.90;;;;;;5013155;28;20026;-78
2022/06/26 08:03:09;;;;;;;5.72;1.30;;;16.50;99.90;;;;;;5012618;28;20042;-77
2022/06/26 08:05:36;;;;;;;1.77;0.68;;;16.70;99.90;;;;;;5012490;28;20064;-80
2022/06/26 08:08:02;;;;;;;4.82;0.70;;;16.90;99.90;;;;;;5012429;28;20036;-81
2022/06/26 08:10:29;;;;;;;3.20;0.52;;;17.10;99.90;;;;;;5012224;28;20026;-79
2022/06/26 08:12:55;;;;;;;2.83;0.75;;;17.40;99.90;;;;;;5012460;28;20385;-76
2022/06/26 08:15:22;;;;;;;5.55;0.75;;;17.60;99.90;;;;;;5012724;28;20018;-83
2022/06/26 08:17:47;;;;;;;3.33;0.63;;;17.90;99.90;;;;;;5004791;28;20022;-79
2022/06/26 08:20:13;;;;;;;6.07;1.10;;;18.00;99.90;;;;;;5005269;28;20033;-78
2022/06/26 08:22:39;;;;;;;5.03;0.60;;;18.20;99.90;;;;;;5006600;28;20041;-79
2022/06/26 08:25:05;;;;;;;3.42;0.82;;;18.10;99.90;;;;;;5009293;28;20018;-79
2022/06/26 08:27:31;;;;;;;2.28;0.38;;;18.10;99.90;;;;;;5003210;28;20081;-81
2022/06/26 08:29:57;;;;;;;23.65;1.08;;;18.20;99.90;;;;;;5010766;28;20046;-81
2022/06/26 08:32:23;;;;;;;4.65;0.80;;;18.30;99.90;;;;;;5008743;28;20534;-80
2022/06/26 08:34:48;;;;;;;7.35;0.82;;;18.50;99.90;;;;;;5006776;28;20037;-78
2022/06/26 08:37:15;;;;;;;1.23;0.60;;;18.50;99.90;;;;;;5007673;28;20033;-79
2022/06/26 08:39:42;;;;;;;3.92;0.50;;;18.70;99.90;;;;;;5010407;28;20018;-78
2022/06/26 08:42:09;;;;;;;6.78;0.93;;;18.90;99.90;;;;;;5011128;28;20034;-79
2022/06/26 08:44:44;;;;;;;2.08;0.50;;;19.30;97.10;;;;;;5011336;28;20363;-79
2022/06/26 08:47:10;;;;;;;2.58;0.80;;;20.30;94.90;;;;;;5006085;28;20021;-79
2022/06/26 08:49:37;;;;;;;2.83;0.45;;;21.40;79.70;;;;;;5011471;28;20018;-79
2022/06/26 08:52:03;;;;;;;3.17;0.50;;;21.50;78.10;;;;;;5011545;28;20030;-78
2022/06/26 08:54:31;;;;;;;5.00;0.60;;;21.30;75.40;;;;;;5012193;28;20084;-78
2022/06/26 08:56:57;;;;;;;6.40;0.52;;;21.50;72.10;;;;;;5011057;28;20448;-78
2022/06/26 08:59:24;;;;;;;4.65;0.60;;;21.80;71.10;;;;;;5010998;28;20022;-78
2022/06/26 09:01:50;;;;;;;4.03;0.43;;;22.40;72.00;;;;;;5011630;28;20032;-81
2022/06/26 09:04:16;;;;;;;3.90;0.55;;;23.10;66.50;;;;;;5011195;28;20025;-80
2022/06/26 09:06:44;;;;;;;1.70;0.45;;;23.60;64.00;;;;;;5011241;28;20386;-77
2022/06/26 09:09:15;;;;;;;5.63;0.30;;;23.70;61.40;;;;;;5011128;28;20022;-79
2022/06/26 09:11:42;;;;;;;2.88;0.50;;;24.10;60.30;;;;;;5011297;28;20057;-79
2022/06/26 09:14:08;;;;;;;1.85;0.50;;;24.50;61.10;;;;;;5011022;28;20387;-79
2022/06/26 09:16:35;;;;;;;4.32;0.57;;;24.90;58.30;;;;;;5010980;28;20014;-82
2022/06/26 09:19:13;;;;;;;1.95;0.70;;;24.70;58.30;;;;;;5010969;28;20455;-79
2022/06/26 09:21:39;;;;;;;3.05;0.25;;;24.30;56.30;;;;;;5003726;28;20041;-78
2022/06/26 09:24:09;;;;;;;3.28;0.50;;;23.90;56.20;;;;;;5010890;28;20069;-80
2022/06/26 09:26:35;;;;;;;2.47;0.47;;;24.10;58.20;;;;;;5010668;28;20029;-78
2022/06/26 09:29:15;;;;;;;1.35;0.20;;;24.60;57.20;;;;;;5011199;28;20030;-78
2022/06/26 09:31:42;;;;;;;3.75;0.60;;;24.80;56.20;;;;;;5010420;28;20029;-78
2022/06/26 09:34:26;;;;;;;3.22;0.60;;;25.30;55.50;;;;;;5010733;28;20025;-78
2022/06/26 09:37:00;;;;;;;2.10;0.35;;;25.20;54.80;;;;;;5010486;28;20026;-80
2022/06/26 09:39:26;;;;;;;2.58;0.30;;;25.20;52.50;;;;;;5010692;28;20029;-78
2022/06/26 09:41:52;;;;;;;2.65;0.30;;;25.90;51.90;;;;;;5010497;28;20557;-78
2022/06/26 09:44:22;;;;;;;2.78;0.20;;;26.80;50.10;;;;;;5011036;28;20097;-79
2022/06/26 09:46:48;;;;;;;2.67;0.47;;;26.60;48.60;;;;;;5010556;28;20025;-78
2022/06/26 09:49:15;;;;;;;2.65;0.32;;;26.10;50.10;;;;;;5010552;28;20414;-79
2022/06/26 09:51:42;;;;;;;1.85;0.30;;;25.70;50.40;;;;;;5010844;28;20113;-82
2022/06/26 09:54:09;;;;;;;4.03;0.70;;;25.90;54.20;;;;;;5010787;28;20026;-80
2022/06/26 09:56:35;;;;;;;4.35;0.70;;;26.60;51.50;;;;;;4991849;28;20414;-80
2022/06/26 09:59:01;;;;;;;4.22;0.40;;;26.90;51.00;;;;;;5010561;28;20029;-79
2022/06/26 10:07:09;;;;;;;1.85;0.63;;;25.30;52.50;;;;;;5004636;28;20041;-79
2022/06/26 10:09:36;;;;;;;3.67;0.57;;;25.80;52.80;;;;;;5010030;28;20076;-78
2022/06/26 10:12:03;;;;;;;3.88;0.68;;;26.70;50.70;;;;;;5010273;28;20017;-79
2022/06/26 10:14:34;;;;;;;5.60;0.40;;;27.70;47.70;;;;;;5010633;28;20026;-79
2022/06/26 10:17:26;;;;;;;2.22;0.25;;;28.60;47.60;;;;;;5010153;28;20023;-79
2022/06/26 10:19:57;;;;;;;1.30;0.40;;;28.60;45.70;;;;;;5004632;28;20372;-79
2022/06/26 10:22:23;;;;;;;2.72;0.40;;;29.10;43.30;;;;;;5010372;28;20037;-78
2022/06/26 10:24:53;;;;;;;1.60;0.38;;;28.80;45.40;;;;;;5010217;28;20364;-77
2022/06/26 10:27:24;;;;;;;2.70;0.57;;;28.80;44.70;;;;;;5010400;28;20068;-78
2022/06/26 10:29:50;;;;;;;1.80;0.43;;;28.40;42.40;;;;;;5010555;28;20018;-80
2022/06/26 10:32:22;;;;;;;1.80;0.32;;;28.50;44.30;;;;;;5010396;28;20429;-79
2022/06/26 10:34:58;;;;;;;2.88;0.25;;;27.80;45.00;;;;;;5008884;28;20624;-78
2022/06/26 10:37:24;;;;;;;3.42;0.75;;;27.80;46.10;;;;;;5010232;28;20026;-77
2022/06/26 10:39:52;;;;;;;1.02;0.43;;;28.30;45.10;;;;;;5009459;28;20034;-77
2022/06/26 10:45:34;;;;;;;2.00;0.50;;;28.90;42.20;;;;;;5010601;28;20387;-78
2022/06/26 10:48:17;;;;;;;3.15;0.70;;;29.60;43.60;;;;;;5010072;28;20446;-77
2022/06/26 10:50:43;;;;;;;1.73;0.40;;;29.10;41.30;;;;;;5004108;28;20018;-79
2022/06/26 10:53:18;;;;;;;0.95;0.20;;;28.70;43.90;;;;;;5001585;28;20018;-78
2022/06/26 10:55:56;;;;;;;0.82;0.30;;;28.40;41.50;;;;;;4997812;28;20130;-77
2022/06/26 10:58:23;;;;;;;2.95;0.50;;;28.20;42.40;;;;;;5009735;28;20080;-78
2022/06/26 11:00:49;;;;;;;3.08;0.50;;;28.50;42.20;;;;;;5009302;28;20018;-79
2022/06/26 11:03:17;;;;;;;3.03;0.45;;;29.50;42.30;;;;;;5005697;28;20026;-78
2022/06/26 11:06:14;;;;;;;2.75;0.98;;;29.70;43.40;;;;;;5011238;28;20018;-80
2022/06/26 11:08:51;;;;;;;1.63;0.30;;;29.50;41.00;;;;;;5012401;28;20049;-79
2022/06/26 11:11:20;;;;;;;3.00;0.63;;;29.70;41.50;;;;;;5006848;28;20033;-79
2022/06/26 11:13:56;;;;;;;2.78;0.50;;;30.70;42.10;;;;;;5013686;28;20018;-78
2022/06/26 11:16:41;;;;;;;1.40;0.40;;;31.10;38.30;;;;;;5013214;28;20022;-77
2022/06/26 11:19:19;;;;;;;1.92;0.68;;;30.10;38.60;;;;;;5003562;28;20027;-79
2022/06/26 11:21:45;;;;;;;1.83;0.47;;;30.10;40.80;;;;;;5009081;28;20033;-80
2022/06/26 11:24:11;;;;;;;2.67;0.60;;;30.80;39.20;;;;;;5011420;28;20028;-79
2022/06/26 11:26:37;;;;;;;1.95;0.52;;;31.00;37.70;;;;;;5005448;28;20141;-79
2022/06/26 11:29:04;;;;;;;3.72;0.40;;;30.60;38.90;;;;;;5008877;28;20435;-79
2022/06/26 11:31:32;;;;;;;4.22;0.75;;;30.40;39.10;;;;;;5012607;28;20018;-78
2022/06/26 11:34:11;;;;;;;2.38;0.30;;;30.70;40.90;;;;;;5013002;28;20032;-81
2022/06/26 11:36:51;;;;;;;1.70;0.15;;;31.50;39.30;;;;;;5013021;28;20026;-79
2022/06/26 11:39:17;;;;;;;1.58;0.50;;;31.00;38.10;;;;;;5013089;28;20026;-78
2022/06/26 11:41:44;;;;;;;4.28;0.40;;;31.90;39.80;;;;;;5013121;28;20142;-77
2022/06/26 11:44:09;;;;;;;2.30;0.32;;;32.00;35.90;;;;;;5012862;28;20559;-77
2022/06/26 11:46:35;;;;;;;1.02;0.15;;;31.90;39.10;;;;;;5010582;28;20478;-77
2022/06/26 11:49:01;;;;;;;2.88;0.35;;;30.70;38.40;;;;;;5013086;28;20099;-78
2022/06/26 11:51:30;;;;;;;1.52;0.30;;;31.00;39.50;;;;;;5012770;28;20025;-77
2022/06/26 11:53:56;;;;;;;5.00;0.73;;;31.50;38.80;;;;;;5011465;28;20104;-76
2022/06/26 11:56:28;;;;;;;3.35;0.38;;;33.20;39.80;;;;;;5012643;28;20446;-77
2022/06/26 11:58:56;;;;;;;3.28;0.57;;;33.60;38.00;;;;;;5004884;28;20024;-77
2022/06/26 12:01:31;;;;;;;2.50;0.50;;;32.50;36.50;;;;;;5012111;28;20018;-78
2022/06/26 12:03:57;;;;;;;1.88;0.50;;;32.40;36.90;;;;;;5012399;28;20030;-78
2022/06/26 12:06:28;;;;;;;2.67;0.60;;;33.20;37.20;;;;;;5012350;28;20014;-78
2022/06/26 12:08:55;;;;;;;;;;;33.50;36.50;;;;;;5011718;28;20089;-79
2022/06/26 12:11:21;;;;;;;1.92;0.50;;;33.10;36.20;;;;;;5010877;28;20002;-77
2022/06/26 12:13:46;;;;;;;1.83;0.40;;;32.20;35.80;;;;;;5012303;28;20054;-78
2022/06/26 12:16:14;;;;;;;1.38;0.22;;;32.90;36.50;;;;;;5012176;28;20021;-80
2022/06/26 12:18:41;;;;;;;5.07;0.52;;;33.20;36.30;;;;;;5012093;28;20067;-79
2022/06/26 12:21:22;;;;;;;4.40;0.73;;;34.00;35.90;;;;;;5011121;28;20390;-78
2022/06/26 12:23:51;;;;;;;6.68;0.77;;;33.50;35.80;;;;;;5011542;28;20048;-80
2022/06/26 12:26:19;;;;;;;3.95;0.45;;;32.60;39.20;;;;;;5011602;28;20018;-76
2022/06/26 12:28:44;;;;;;;3.67;0.70;;;32.90;37.40;;;;;;5010805;28;20161;-80
2022/06/26 12:31:12;;;;;;;2.00;0.60;;;33.90;38.40;;;;;;5010100;28;20108;-79
2022/06/26 12:33:38;;;;;;;4.45;0.60;;;34.80;35.20;;;;;;5009289;28;20038;-79
2022/06/26 12:36:04;;;;;;;3.85;0.47;;;35.30;35.10;;;;;;5006513;28;20026;-80
2022/06/26 12:38:34;;;;;;;1.85;0.43;;;34.50;34.00;;;;;;5001800;28;20033;-78
2022/06/26 12:41:00;;;;;;;4.22;0.70;;;35.40;36.90;;;;;;5008838;28;20034;-79
2022/06/26 12:43:26;;;;;;;1.60;0.35;;;33.90;35.50;;;;;;5009535;28;20034;-78
2022/06/26 12:45:52;;;;;;;2.05;0.40;;;34.00;37.00;;;;;;5009759;28;20120;-78
2022/06/26 12:48:18;;;;;;;1.60;0.40;;;33.70;36.50;;;;;;4999970;28;20049;-79
2022/06/26 12:50:43;;;;;;;1.73;0.55;;;33.50;37.40;;;;;;5005581;28;20030;-78
2022/06/26 12:53:09;;;;;;;2.65;0.47;;;34.40;37.60;;;;;;5009575;28;20394;-78
2022/06/26 12:55:36;;;;;;;2.58;0.52;;;34.50;36.00;;;;;;5010141;28;20026;-78
2022/06/26 12:58:02;;;;;;;1.42;0.30;;;34.10;34.90;;;;;;5009569;28;20109;-80
2022/06/26 13:00:28;;;;;;;1.60;0.38;;;33.80;36.50;;;;;;5009275;28;20643;-78
2022/06/26 13:02:54;;;;;;;1.88;1.05;;;33.90;36.20;;;;;;5008175;28;20030;-79